sensor_id;sensor_type;location;lat;lon;timestamp;temperature;humidity
55313;DHT22;46892;45.668;11.756;2023-04-25T00:00:52;12.80;79.60
55313;DHT22;46892;45.668;11.756;2023-04-25T00:03:18;12.70;80.30
55313;DHT22;46892;45.668;11.756;2023-04-25T00:05:44;12.60;79.90
55313;DHT22;46892;45.668;11.756;2023-04-25T00:08:10;12.50;79.90
55313;DHT22;46892;45.668;11.756;2023-04-25T00:10:36;12.40;80.50
55313;DHT22;46892;45.668;11.756;2023-04-25T00:13:02;12.30;80.80
55313;DHT22;46892;45.668;11.756;2023-04-25T00:15:28;12.30;81.20
55313;DHT22;46892;45.668;11.756;2023-04-25T00:17:56;12.30;81.30
55313;DHT22;46892;45.668;11.756;2023-04-25T00:20:22;12.20;81.50
55313;DHT22;46892;45.668;11.756;2023-04-25T00:22:49;12.20;81.90
55313;DHT22;46892;45.668;11.756;2023-04-25T00:25:15;12.10;82.30
55313;DHT22;46892;45.668;11.756;2023-04-25T00:27:40;12.00;82.30
55313;DHT22;46892;45.668;11.756;2023-04-25T00:30:07;12.20;82.60
55313;DHT22;46892;45.668;11.756;2023-04-25T00:32:33;12.20;82.30
55313;DHT22;46892;45.668;11.756;2023-04-25T00:34:59;12.20;80.90
55313;DHT22;46892;45.668;11.756;2023-04-25T00:37:25;12.10;81.50
55313;DHT22;46892;45.668;11.756;2023-04-25T00:39:51;12.00;81.70
55313;DHT22;46892;45.668;11.756;2023-04-25T00:42:19;11.80;82.00
55313;DHT22;46892;45.668;11.756;2023-04-25T00:44:45;11.80;82.80
55313;DHT22;46892;45.668;11.756;2023-04-25T00:47:11;11.70;83.20
55313;DHT22;46892;45.668;11.756;2023-04-25T00:49:36;11.80;83.20
55313;DHT22;46892;45.668;11.756;2023-04-25T00:52:02;11.70;83.70
55313;DHT22;46892;45.668;11.756;2023-04-25T00:54:28;11.60;84.10
55313;DHT22;46892;45.668;11.756;2023-04-25T00:56:55;11.70;83.80
55313;DHT22;46892;45.668;11.756;2023-04-25T00:59:21;11.70;83.70
55313;DHT22;46892;45.668;11.756;2023-04-25T01:01:47;11.60;83.60
55313;DHT22;46892;45.668;11.756;2023-04-25T01:04:13;11.80;83.30
55313;DHT22;46892;45.668;11.756;2023-04-25T01:06:39;11.90;82.70
55313;DHT22;46892;45.668;11.756;2023-04-25T01:09:05;11.90;82.80
55313;DHT22;46892;45.668;11.756;2023-04-25T01:11:30;11.80;82.80
55313;DHT22;46892;45.668;11.756;2023-04-25T01:13:56;11.60;82.20
55313;DHT22;46892;45.668;11.756;2023-04-25T01:16:22;11.60;82.90
55313;DHT22;46892;45.668;11.756;2023-04-25T01:18:49;11.60;83.10
55313;DHT22;46892;45.668;11.756;2023-04-25T01:21:16;11.60;83.20
55313;DHT22;46892;45.668;11.756;2023-04-25T01:23:42;11.60;83.00
55313;DHT22;46892;45.668;11.756;2023-04-25T01:26:11;11.70;83.00
55313;DHT22;46892;45.668;11.756;2023-04-25T01:28:38;11.70;82.80
55313;DHT22;46892;45.668;11.756;2023-04-25T01:31:07;11.70;82.80
55313;DHT22;46892;45.668;11.756;2023-04-25T01:33:33;11.70;83.20
55313;DHT22;46892;45.668;11.756;2023-04-25T01:35:59;11.70;82.90
55313;DHT22;46892;45.668;11.756;2023-04-25T01:38:25;11.70;83.00
55313;DHT22;46892;45.668;11.756;2023-04-25T01:40:51;11.60;81.90
55313;DHT22;46892;45.668;11.756;2023-04-25T01:43:17;11.30;82.00
55313;DHT22;46892;45.668;11.756;2023-04-25T01:45:43;11.10;83.10
55313;DHT22;46892;45.668;11.756;2023-04-25T01:48:10;11.00;83.80
55313;DHT22;46892;45.668;11.756;2023-04-25T01:50:37;11.00;84.20
55313;DHT22;46892;45.668;11.756;2023-04-25T01:53:04;10.90;84.20
55313;DHT22;46892;45.668;11.756;2023-04-25T01:55:30;10.80;84.60
55313;DHT22;46892;45.668;11.756;2023-04-25T01:57:56;10.80;84.50
55313;DHT22;46892;45.668;11.756;2023-04-25T02:00:22;10.90;84.40
55313;DHT22;46892;45.668;11.756;2023-04-25T02:02:48;11.10;83.50
55313;DHT22;46892;45.668;11.756;2023-04-25T02:05:16;11.10;83.50
55313;DHT22;46892;45.668;11.756;2023-04-25T02:07:42;11.20;83.30
55313;DHT22;46892;45.668;11.756;2023-04-25T02:10:08;11.20;83.30
55313;DHT22;46892;45.668;11.756;2023-04-25T02:12:35;11.10;83.30
55313;DHT22;46892;45.668;11.756;2023-04-25T02:15:00;11.10;83.20
55313;DHT22;46892;45.668;11.756;2023-04-25T02:17:26;11.20;83.40
55313;DHT22;46892;45.668;11.756;2023-04-25T02:19:52;11.20;83.30
55313;DHT22;46892;45.668;11.756;2023-04-25T02:22:18;11.20;83.00
55313;DHT22;46892;45.668;11.756;2023-04-25T02:24:43;11.20;82.40
55313;DHT22;46892;45.668;11.756;2023-04-25T02:27:09;11.20;82.40
55313;DHT22;46892;45.668;11.756;2023-04-25T02:29:35;11.20;82.10
55313;DHT22;46892;45.668;11.756;2023-04-25T02:32:01;11.30;81.70
55313;DHT22;46892;45.668;11.756;2023-04-25T02:34:26;11.10;81.80
55313;DHT22;46892;45.668;11.756;2023-04-25T02:36:52;11.00;82.20
55313;DHT22;46892;45.668;11.756;2023-04-25T02:39:18;11.00;82.30
55313;DHT22;46892;45.668;11.756;2023-04-25T02:41:44;11.00;81.90
55313;DHT22;46892;45.668;11.756;2023-04-25T02:44:09;11.00;82.20
55313;DHT22;46892;45.668;11.756;2023-04-25T02:46:35;10.90;82.20
55313;DHT22;46892;45.668;11.756;2023-04-25T02:49:01;10.90;82.40
55313;DHT22;46892;45.668;11.756;2023-04-25T02:51:26;10.80;82.50
55313;DHT22;46892;45.668;11.756;2023-04-25T02:53:52;10.80;82.60
55313;DHT22;46892;45.668;11.756;2023-04-25T02:56:18;10.90;82.90
55313;DHT22;46892;45.668;11.756;2023-04-25T02:58:43;10.90;82.90
55313;DHT22;46892;45.668;11.756;2023-04-25T03:01:09;11.00;82.60
55313;DHT22;46892;45.668;11.756;2023-04-25T03:03:35;11.00;82.80
55313;DHT22;46892;45.668;11.756;2023-04-25T03:06:01;11.00;82.40
55313;DHT22;46892;45.668;11.756;2023-04-25T03:08:26;10.90;82.50
55313;DHT22;46892;45.668;11.756;2023-04-25T03:10:57;10.90;82.50
55313;DHT22;46892;45.668;11.756;2023-04-25T03:13:24;10.80;82.40
55313;DHT22;46892;45.668;11.756;2023-04-25T03:15:49;10.80;82.50
55313;DHT22;46892;45.668;11.756;2023-04-25T03:18:15;10.70;82.40
55313;DHT22;46892;45.668;11.756;2023-04-25T03:20:41;10.80;82.90
55313;DHT22;46892;45.668;11.756;2023-04-25T03:23:07;10.90;82.60
55313;DHT22;46892;45.668;11.756;2023-04-25T03:25:33;10.90;82.50
55313;DHT22;46892;45.668;11.756;2023-04-25T03:27:58;11.00;82.40
55313;DHT22;46892;45.668;11.756;2023-04-25T03:30:24;11.00;82.20
55313;DHT22;46892;45.668;11.756;2023-04-25T03:32:50;11.10;82.10
55313;DHT22;46892;45.668;11.756;2023-04-25T03:35:15;11.20;82.10
55313;DHT22;46892;45.668;11.756;2023-04-25T03:37:41;11.20;82.30
55313;DHT22;46892;45.668;11.756;2023-04-25T03:40:11;11.20;82.40
55313;DHT22;46892;45.668;11.756;2023-04-25T03:42:36;11.10;82.00
55313;DHT22;46892;45.668;11.756;2023-04-25T03:45:02;11.00;82.40
55313;DHT22;46892;45.668;11.756;2023-04-25T03:47:28;11.00;82.50
55313;DHT22;46892;45.668;11.756;2023-04-25T03:49:54;11.00;82.50
55313;DHT22;46892;45.668;11.756;2023-04-25T03:52:20;11.00;82.70
55313;DHT22;46892;45.668;11.756;2023-04-25T03:54:46;11.00;83.00
55313;DHT22;46892;45.668;11.756;2023-04-25T03:57:11;11.10;82.80
55313;DHT22;46892;45.668;11.756;2023-04-25T03:59:37;11.10;82.80
55313;DHT22;46892;45.668;11.756;2023-04-25T04:02:03;11.10;82.70
55313;DHT22;46892;45.668;11.756;2023-04-25T04:04:28;11.20;82.60
55313;DHT22;46892;45.668;11.756;2023-04-25T04:06:55;11.20;82.50
55313;DHT22;46892;45.668;11.756;2023-04-25T04:09:21;11.30;82.00
55313;DHT22;46892;45.668;11.756;2023-04-25T04:11:46;11.30;81.50
55313;DHT22;46892;45.668;11.756;2023-04-25T04:14:12;11.40;81.40
55313;DHT22;46892;45.668;11.756;2023-04-25T04:16:38;11.50;81.20
55313;DHT22;46892;45.668;11.756;2023-04-25T04:19:04;11.50;81.90
55313;DHT22;46892;45.668;11.756;2023-04-25T04:21:30;11.60;81.50
55313;DHT22;46892;45.668;11.756;2023-04-25T04:23:57;11.70;81.70
55313;DHT22;46892;45.668;11.756;2023-04-25T04:26:23;11.70;81.90
55313;DHT22;46892;45.668;11.756;2023-04-25T04:28:49;11.60;82.30
55313;DHT22;46892;45.668;11.756;2023-04-25T04:31:20;11.70;81.70
55313;DHT22;46892;45.668;11.756;2023-04-25T04:33:46;11.60;82.40
55313;DHT22;46892;45.668;11.756;2023-04-25T04:36:12;11.60;83.10
55313;DHT22;46892;45.668;11.756;2023-04-25T04:38:38;11.50;83.10
55313;DHT22;46892;45.668;11.756;2023-04-25T04:41:04;11.50;83.60
55313;DHT22;46892;45.668;11.756;2023-04-25T04:43:29;11.60;84.10
55313;DHT22;46892;45.668;11.756;2023-04-25T04:45:55;11.70;83.50
55313;DHT22;46892;45.668;11.756;2023-04-25T04:48:22;11.80;82.70
55313;DHT22;46892;45.668;11.756;2023-04-25T04:50:48;11.80;82.90
55313;DHT22;46892;45.668;11.756;2023-04-25T04:53:13;11.70;83.50
55313;DHT22;46892;45.668;11.756;2023-04-25T04:55:39;11.50;84.10
55313;DHT22;46892;45.668;11.756;2023-04-25T04:58:07;11.50;83.60
55313;DHT22;46892;45.668;11.756;2023-04-25T05:00:32;11.50;83.40
55313;DHT22;46892;45.668;11.756;2023-04-25T05:02:59;11.40;83.30
55313;DHT22;46892;45.668;11.756;2023-04-25T05:05:25;11.30;83.30
55313;DHT22;46892;45.668;11.756;2023-04-25T05:07:51;11.30;84.00
55313;DHT22;46892;45.668;11.756;2023-04-25T05:10:18;11.30;84.50
55313;DHT22;46892;45.668;11.756;2023-04-25T05:12:44;11.40;85.80
55313;DHT22;46892;45.668;11.756;2023-04-25T05:15:10;11.50;85.40
55313;DHT22;46892;45.668;11.756;2023-04-25T05:17:36;11.60;85.20
55313;DHT22;46892;45.668;11.756;2023-04-25T05:20:02;11.70;84.30
55313;DHT22;46892;45.668;11.756;2023-04-25T05:22:28;11.70;84.30
55313;DHT22;46892;45.668;11.756;2023-04-25T05:24:53;11.80;84.40
55313;DHT22;46892;45.668;11.756;2023-04-25T05:27:20;11.70;84.90
55313;DHT22;46892;45.668;11.756;2023-04-25T05:29:45;11.60;85.00
55313;DHT22;46892;45.668;11.756;2023-04-25T05:32:11;11.50;85.20
55313;DHT22;46892;45.668;11.756;2023-04-25T05:34:37;11.40;85.50
55313;DHT22;46892;45.668;11.756;2023-04-25T05:37:02;11.30;85.90
55313;DHT22;46892;45.668;11.756;2023-04-25T05:39:28;11.30;86.20
55313;DHT22;46892;45.668;11.756;2023-04-25T05:41:54;11.30;86.40
55313;DHT22;46892;45.668;11.756;2023-04-25T05:44:20;11.20;86.60
55313;DHT22;46892;45.668;11.756;2023-04-25T05:46:45;11.30;86.60
55313;DHT22;46892;45.668;11.756;2023-04-25T05:49:11;11.60;86.00
55313;DHT22;46892;45.668;11.756;2023-04-25T05:51:36;11.60;85.60
55313;DHT22;46892;45.668;11.756;2023-04-25T05:54:02;11.70;85.40
55313;DHT22;46892;45.668;11.756;2023-04-25T05:56:28;11.70;85.70
55313;DHT22;46892;45.668;11.756;2023-04-25T05:58:54;11.80;84.80
55313;DHT22;46892;45.668;11.756;2023-04-25T06:01:21;11.80;84.70
55313;DHT22;46892;45.668;11.756;2023-04-25T06:03:47;11.70;84.90
55313;DHT22;46892;45.668;11.756;2023-04-25T06:06:13;11.70;85.00
55313;DHT22;46892;45.668;11.756;2023-04-25T06:08:39;11.70;85.10
55313;DHT22;46892;45.668;11.756;2023-04-25T06:11:06;11.60;85.30
55313;DHT22;46892;45.668;11.756;2023-04-25T06:13:33;11.50;85.70
55313;DHT22;46892;45.668;11.756;2023-04-25T06:16:00;11.60;85.40
55313;DHT22;46892;45.668;11.756;2023-04-25T06:18:27;11.60;85.80
55313;DHT22;46892;45.668;11.756;2023-04-25T06:20:53;11.60;85.70
55313;DHT22;46892;45.668;11.756;2023-04-25T06:23:19;11.60;85.70
55313;DHT22;46892;45.668;11.756;2023-04-25T06:25:45;11.70;85.90
55313;DHT22;46892;45.668;11.756;2023-04-25T06:28:10;11.70;85.80
55313;DHT22;46892;45.668;11.756;2023-04-25T06:30:36;11.70;85.90
55313;DHT22;46892;45.668;11.756;2023-04-25T06:33:02;11.60;85.80
55313;DHT22;46892;45.668;11.756;2023-04-25T06:35:27;11.60;85.90
55313;DHT22;46892;45.668;11.756;2023-04-25T06:37:53;11.60;86.10
55313;DHT22;46892;45.668;11.756;2023-04-25T06:40:18;11.60;86.30
55313;DHT22;46892;45.668;11.756;2023-04-25T06:42:44;11.50;86.00
55313;DHT22;46892;45.668;11.756;2023-04-25T06:45:10;11.50;86.50
55313;DHT22;46892;45.668;11.756;2023-04-25T06:47:35;11.50;86.60
55313;DHT22;46892;45.668;11.756;2023-04-25T06:50:01;11.50;86.70
55313;DHT22;46892;45.668;11.756;2023-04-25T06:52:27;11.50;86.70
55313;DHT22;46892;45.668;11.756;2023-04-25T06:54:52;11.50;87.10
55313;DHT22;46892;45.668;11.756;2023-04-25T06:57:18;11.50;87.30
55313;DHT22;46892;45.668;11.756;2023-04-25T06:59:44;11.60;87.20
55313;DHT22;46892;45.668;11.756;2023-04-25T07:02:09;11.50;87.40
55313;DHT22;46892;45.668;11.756;2023-04-25T07:04:35;11.50;87.90
55313;DHT22;46892;45.668;11.756;2023-04-25T07:07:01;11.50;88.10
55313;DHT22;46892;45.668;11.756;2023-04-25T07:09:28;11.60;87.50
55313;DHT22;46892;45.668;11.756;2023-04-25T07:11:54;11.70;86.50
55313;DHT22;46892;45.668;11.756;2023-04-25T07:14:20;11.70;86.40
55313;DHT22;46892;45.668;11.756;2023-04-25T07:16:46;11.70;86.00
55313;DHT22;46892;45.668;11.756;2023-04-25T07:19:12;11.70;85.90
55313;DHT22;46892;45.668;11.756;2023-04-25T07:21:37;11.70;85.70
55313;DHT22;46892;45.668;11.756;2023-04-25T07:24:03;11.60;85.90
55313;DHT22;46892;45.668;11.756;2023-04-25T07:26:29;11.60;85.80
55313;DHT22;46892;45.668;11.756;2023-04-25T07:28:55;11.40;86.40
55313;DHT22;46892;45.668;11.756;2023-04-25T07:31:22;11.30;86.90
55313;DHT22;46892;45.668;11.756;2023-04-25T07:33:48;11.30;86.70
55313;DHT22;46892;45.668;11.756;2023-04-25T07:36:13;11.20;87.20
55313;DHT22;46892;45.668;11.756;2023-04-25T07:38:40;11.10;87.50
55313;DHT22;46892;45.668;11.756;2023-04-25T07:41:06;11.10;87.90
55313;DHT22;46892;45.668;11.756;2023-04-25T07:43:32;11.20;87.90
55313;DHT22;46892;45.668;11.756;2023-04-25T07:45:58;11.20;88.10
55313;DHT22;46892;45.668;11.756;2023-04-25T07:48:23;11.10;88.10
55313;DHT22;46892;45.668;11.756;2023-04-25T07:50:49;11.10;87.90
55313;DHT22;46892;45.668;11.756;2023-04-25T07:53:15;11.20;88.00
55313;DHT22;46892;45.668;11.756;2023-04-25T07:55:42;11.20;87.90
55313;DHT22;46892;45.668;11.756;2023-04-25T07:58:08;11.20;88.10
55313;DHT22;46892;45.668;11.756;2023-04-25T08:00:34;11.30;88.50
55313;DHT22;46892;45.668;11.756;2023-04-25T08:03:00;11.30;88.60
55313;DHT22;46892;45.668;11.756;2023-04-25T08:05:25;11.30;88.20
55313;DHT22;46892;45.668;11.756;2023-04-25T08:07:51;11.20;88.00
55313;DHT22;46892;45.668;11.756;2023-04-25T08:10:17;11.10;88.40
55313;DHT22;46892;45.668;11.756;2023-04-25T08:12:42;11.00;88.70
55313;DHT22;46892;45.668;11.756;2023-04-25T08:15:09;11.00;89.10
55313;DHT22;46892;45.668;11.756;2023-04-25T08:17:34;11.00;89.20
55313;DHT22;46892;45.668;11.756;2023-04-25T08:20:00;11.00;89.10
55313;DHT22;46892;45.668;11.756;2023-04-25T08:22:28;11.00;88.90
55313;DHT22;46892;45.668;11.756;2023-04-25T08:24:54;11.10;88.60
55313;DHT22;46892;45.668;11.756;2023-04-25T08:27:19;11.20;88.40
55313;DHT22;46892;45.668;11.756;2023-04-25T08:29:46;11.30;88.80
55313;DHT22;46892;45.668;11.756;2023-04-25T08:32:11;11.30;89.10
55313;DHT22;46892;45.668;11.756;2023-04-25T08:34:37;11.30;89.10
55313;DHT22;46892;45.668;11.756;2023-04-25T08:37:04;11.40;89.20
55313;DHT22;46892;45.668;11.756;2023-04-25T08:39:31;11.50;88.30
55313;DHT22;46892;45.668;11.756;2023-04-25T08:41:56;11.40;88.30
55313;DHT22;46892;45.668;11.756;2023-04-25T08:44:22;11.30;88.40
55313;DHT22;46892;45.668;11.756;2023-04-25T08:46:49;11.20;88.80
55313;DHT22;46892;45.668;11.756;2023-04-25T08:49:18;11.20;89.10
55313;DHT22;46892;45.668;11.756;2023-04-25T08:51:45;11.30;89.50
55313;DHT22;46892;45.668;11.756;2023-04-25T08:54:13;11.60;89.20
55313;DHT22;46892;45.668;11.756;2023-04-25T08:56:41;11.70;88.50
55313;DHT22;46892;45.668;11.756;2023-04-25T08:59:10;11.70;87.60
55313;DHT22;46892;45.668;11.756;2023-04-25T09:01:36;11.70;87.10
55313;DHT22;46892;45.668;11.756;2023-04-25T09:04:02;11.70;87.00
55313;DHT22;46892;45.668;11.756;2023-04-25T09:06:29;11.80;87.80
55313;DHT22;46892;45.668;11.756;2023-04-25T09:09:02;11.90;86.00
55313;DHT22;46892;45.668;11.756;2023-04-25T09:11:29;12.10;84.20
55313;DHT22;46892;45.668;11.756;2023-04-25T09:14:17;12.20;83.90
55313;DHT22;46892;45.668;11.756;2023-04-25T09:16:58;12.30;82.40
55313;DHT22;46892;45.668;11.756;2023-04-25T09:19:27;12.40;82.50
55313;DHT22;46892;45.668;11.756;2023-04-25T09:21:54;12.60;81.40
55313;DHT22;46892;45.668;11.756;2023-04-25T09:24:40;12.80;81.50
55313;DHT22;46892;45.668;11.756;2023-04-25T09:27:12;12.90;81.00
55313;DHT22;46892;45.668;11.756;2023-04-25T09:29:39;12.80;79.70
55313;DHT22;46892;45.668;11.756;2023-04-25T09:34:46;12.80;79.40
55313;DHT22;46892;45.668;11.756;2023-04-25T09:37:23;12.80;79.90
55313;DHT22;46892;45.668;11.756;2023-04-25T09:39:53;12.80;79.70
55313;DHT22;46892;45.668;11.756;2023-04-25T09:42:22;13.00;79.80
55313;DHT22;46892;45.668;11.756;2023-04-25T09:44:51;13.20;79.50
55313;DHT22;46892;45.668;11.756;2023-04-25T09:47:17;13.20;78.40
55313;DHT22;46892;45.668;11.756;2023-04-25T09:49:43;13.20;77.80
55313;DHT22;46892;45.668;11.756;2023-04-25T09:52:16;13.10;77.60
55313;DHT22;46892;45.668;11.756;2023-04-25T09:54:43;13.20;79.90
55313;DHT22;46892;45.668;11.756;2023-04-25T09:59:43;13.20;78.00
55313;DHT22;46892;45.668;11.756;2023-04-25T10:02:11;13.20;77.00
55313;DHT22;46892;45.668;11.756;2023-04-25T10:04:38;13.40;77.40
55313;DHT22;46892;45.668;11.756;2023-04-25T10:07:06;13.40;76.10
55313;DHT22;46892;45.668;11.756;2023-04-25T10:09:32;13.50;75.80
55313;DHT22;46892;45.668;11.756;2023-04-25T10:12:02;13.30;76.40
55313;DHT22;46892;45.668;11.756;2023-04-25T10:14:30;13.50;76.80
55313;DHT22;46892;45.668;11.756;2023-04-25T10:16:57;13.70;76.70
55313;DHT22;46892;45.668;11.756;2023-04-25T10:19:24;13.90;77.00
55313;DHT22;46892;45.668;11.756;2023-04-25T10:22:08;14.10;75.00
55313;DHT22;46892;45.668;11.756;2023-04-25T10:24:38;14.10;75.00
55313;DHT22;46892;45.668;11.756;2023-04-25T10:27:04;14.20;77.10
55313;DHT22;46892;45.668;11.756;2023-04-25T10:29:31;14.20;75.50
55313;DHT22;46892;45.668;11.756;2023-04-25T10:31:57;14.20;74.10
55313;DHT22;46892;45.668;11.756;2023-04-25T10:37:05;14.20;76.20
55313;DHT22;46892;45.668;11.756;2023-04-25T10:39:33;14.10;76.20
55313;DHT22;46892;45.668;11.756;2023-04-25T10:42:02;13.90;74.80
55313;DHT22;46892;45.668;11.756;2023-04-25T10:44:29;14.00;75.20
55313;DHT22;46892;45.668;11.756;2023-04-25T10:46:56;14.10;75.90
55313;DHT22;46892;45.668;11.756;2023-04-25T10:49:30;14.30;73.50
55313;DHT22;46892;45.668;11.756;2023-04-25T10:52:16;14.40;73.80
55313;DHT22;46892;45.668;11.756;2023-04-25T10:54:51;14.70;74.20
55313;DHT22;46892;45.668;11.756;2023-04-25T11:02:52;14.70;74.20
55313;DHT22;46892;45.668;11.756;2023-04-25T11:05:35;14.80;71.80
55313;DHT22;46892;45.668;11.756;2023-04-25T11:08:02;14.80;72.30
55313;DHT22;46892;45.668;11.756;2023-04-25T11:10:30;14.60;72.80
55313;DHT22;46892;45.668;11.756;2023-04-25T11:12:57;14.50;72.40
55313;DHT22;46892;45.668;11.756;2023-04-25T11:15:23;14.60;73.20
55313;DHT22;46892;45.668;11.756;2023-04-25T11:17:53;14.70;71.30
55313;DHT22;46892;45.668;11.756;2023-04-25T11:20:20;14.80;73.20
55313;DHT22;46892;45.668;11.756;2023-04-25T11:22:46;15.00;72.70
55313;DHT22;46892;45.668;11.756;2023-04-25T11:25:14;15.20;72.90
55313;DHT22;46892;45.668;11.756;2023-04-25T11:27:50;15.10;71.40
55313;DHT22;46892;45.668;11.756;2023-04-25T11:30:17;15.10;69.90
55313;DHT22;46892;45.668;11.756;2023-04-25T11:32:43;15.10;69.90
55313;DHT22;46892;45.668;11.756;2023-04-25T11:35:10;15.00;67.90
55313;DHT22;46892;45.668;11.756;2023-04-25T11:37:35;14.90;70.20
55313;DHT22;46892;45.668;11.756;2023-04-25T11:40:03;14.90;73.40
55313;DHT22;46892;45.668;11.756;2023-04-25T11:42:30;15.00;73.90
55313;DHT22;46892;45.668;11.756;2023-04-25T11:44:55;15.00;72.80
55313;DHT22;46892;45.668;11.756;2023-04-25T11:47:30;14.80;72.70
55313;DHT22;46892;45.668;11.756;2023-04-25T11:49:58;14.60;71.70
55313;DHT22;46892;45.668;11.756;2023-04-25T11:52:35;14.50;74.00
55313;DHT22;46892;45.668;11.756;2023-04-25T11:55:00;14.50;74.70
55313;DHT22;46892;45.668;11.756;2023-04-25T11:57:26;14.50;74.30
55313;DHT22;46892;45.668;11.756;2023-04-25T11:59:52;14.40;71.80
55313;DHT22;46892;45.668;11.756;2023-04-25T12:02:26;14.30;73.10
55313;DHT22;46892;45.668;11.756;2023-04-25T12:04:52;14.20;70.30
55313;DHT22;46892;45.668;11.756;2023-04-25T12:07:17;14.30;71.30
55313;DHT22;46892;45.668;11.756;2023-04-25T12:09:51;14.40;74.10
55313;DHT22;46892;45.668;11.756;2023-04-25T12:12:17;14.60;71.60
55313;DHT22;46892;45.668;11.756;2023-04-25T12:14:46;14.70;71.80
55313;DHT22;46892;45.668;11.756;2023-04-25T12:17:14;14.70;71.10
55313;DHT22;46892;45.668;11.756;2023-04-25T12:19:39;14.50;68.60
55313;DHT22;46892;45.668;11.756;2023-04-25T12:22:20;14.30;68.40
55313;DHT22;46892;45.668;11.756;2023-04-25T12:24:46;14.20;69.80
55313;DHT22;46892;45.668;11.756;2023-04-25T12:27:14;14.00;71.60
55313;DHT22;46892;45.668;11.756;2023-04-25T12:32:18;13.50;73.60
55313;DHT22;46892;45.668;11.756;2023-04-25T12:34:44;13.40;73.70
55313;DHT22;46892;45.668;11.756;2023-04-25T12:37:10;13.30;74.90
55313;DHT22;46892;45.668;11.756;2023-04-25T12:39:36;13.30;75.80
55313;DHT22;46892;45.668;11.756;2023-04-25T12:42:02;13.30;75.30
55313;DHT22;46892;45.668;11.756;2023-04-25T12:44:28;13.20;74.10
55313;DHT22;46892;45.668;11.756;2023-04-25T12:46:54;13.20;74.20
55313;DHT22;46892;45.668;11.756;2023-04-25T12:49:20;13.20;75.60
55313;DHT22;46892;45.668;11.756;2023-04-25T12:51:46;13.20;75.70
55313;DHT22;46892;45.668;11.756;2023-04-25T12:54:14;13.20;75.20
55313;DHT22;46892;45.668;11.756;2023-04-25T12:56:41;13.20;75.20
55313;DHT22;46892;45.668;11.756;2023-04-25T12:59:07;13.20;76.40
55313;DHT22;46892;45.668;11.756;2023-04-25T13:01:33;13.20;76.80
55313;DHT22;46892;45.668;11.756;2023-04-25T13:03:58;13.20;77.00
55313;DHT22;46892;45.668;11.756;2023-04-25T13:06:24;13.20;77.70
55313;DHT22;46892;45.668;11.756;2023-04-25T13:08:50;13.10;76.70
55313;DHT22;46892;45.668;11.756;2023-04-25T13:11:15;13.20;77.90
55313;DHT22;46892;45.668;11.756;2023-04-25T13:13:41;13.30;78.70
55313;DHT22;46892;45.668;11.756;2023-04-25T13:16:07;13.30;78.30
55313;DHT22;46892;45.668;11.756;2023-04-25T13:18:34;13.30;77.50
55313;DHT22;46892;45.668;11.756;2023-04-25T13:21:00;13.20;77.70
55313;DHT22;46892;45.668;11.756;2023-04-25T13:23:27;13.10;77.20
55313;DHT22;46892;45.668;11.756;2023-04-25T13:25:53;13.10;77.20
55313;DHT22;46892;45.668;11.756;2023-04-25T13:28:18;13.00;77.60
55313;DHT22;46892;45.668;11.756;2023-04-25T13:30:45;12.90;77.70
55313;DHT22;46892;45.668;11.756;2023-04-25T13:33:11;12.80;76.70
55313;DHT22;46892;45.668;11.756;2023-04-25T13:35:38;12.80;77.20
55313;DHT22;46892;45.668;11.756;2023-04-25T13:38:04;12.80;76.40
55313;DHT22;46892;45.668;11.756;2023-04-25T13:40:30;12.80;76.80
55313;DHT22;46892;45.668;11.756;2023-04-25T13:42:58;12.90;76.20
55313;DHT22;46892;45.668;11.756;2023-04-25T13:45:24;13.00;76.80
55313;DHT22;46892;45.668;11.756;2023-04-25T13:47:50;13.20;75.60
55313;DHT22;46892;45.668;11.756;2023-04-25T13:50:17;13.30;74.30
55313;DHT22;46892;45.668;11.756;2023-04-25T13:52:42;13.30;75.30
55313;DHT22;46892;45.668;11.756;2023-04-25T13:55:09;13.30;74.80
55313;DHT22;46892;45.668;11.756;2023-04-25T13:57:35;13.30;73.30
55313;DHT22;46892;45.668;11.756;2023-04-25T14:00:03;13.40;75.50
55313;DHT22;46892;45.668;11.756;2023-04-25T14:02:34;13.60;74.10
55313;DHT22;46892;45.668;11.756;2023-04-25T14:05:00;13.50;74.40
55313;DHT22;46892;45.668;11.756;2023-04-25T14:07:26;13.50;74.40
55313;DHT22;46892;45.668;11.756;2023-04-25T14:09:52;13.30;72.70
55313;DHT22;46892;45.668;11.756;2023-04-25T14:12:18;13.30;74.30
55313;DHT22;46892;45.668;11.756;2023-04-25T14:14:43;13.30;74.50
55313;DHT22;46892;45.668;11.756;2023-04-25T14:17:09;13.20;74.00
55313;DHT22;46892;45.668;11.756;2023-04-25T14:19:35;13.10;74.70
55313;DHT22;46892;45.668;11.756;2023-04-25T14:22:01;13.10;74.70
55313;DHT22;46892;45.668;11.756;2023-04-25T14:24:27;13.00;76.00
55313;DHT22;46892;45.668;11.756;2023-04-25T14:26:53;13.00;76.00
55313;DHT22;46892;45.668;11.756;2023-04-25T14:29:18;13.00;77.00
55313;DHT22;46892;45.668;11.756;2023-04-25T14:31:44;13.00;75.90
55313;DHT22;46892;45.668;11.756;2023-04-25T14:34:10;13.00;75.50
55313;DHT22;46892;45.668;11.756;2023-04-25T14:36:36;13.00;76.70
55313;DHT22;46892;45.668;11.756;2023-04-25T14:39:02;13.10;75.50
55313;DHT22;46892;45.668;11.756;2023-04-25T14:41:28;13.10;76.30
55313;DHT22;46892;45.668;11.756;2023-04-25T14:43:54;13.10;75.60
55313;DHT22;46892;45.668;11.756;2023-04-25T14:46:21;13.10;76.80
55313;DHT22;46892;45.668;11.756;2023-04-25T14:48:47;13.10;75.70
55313;DHT22;46892;45.668;11.756;2023-04-25T14:51:13;13.30;77.30
55313;DHT22;46892;45.668;11.756;2023-04-25T14:53:40;13.30;76.50
55313;DHT22;46892;45.668;11.756;2023-04-25T14:56:06;13.30;75.70
55313;DHT22;46892;45.668;11.756;2023-04-25T14:58:32;13.30;74.50
55313;DHT22;46892;45.668;11.756;2023-04-25T15:00:59;13.40;77.20
55313;DHT22;46892;45.668;11.756;2023-04-25T15:03:25;13.40;75.50
55313;DHT22;46892;45.668;11.756;2023-04-25T15:05:53;13.30;72.90
55313;DHT22;46892;45.668;11.756;2023-04-25T15:08:20;13.30;74.60
55313;DHT22;46892;45.668;11.756;2023-04-25T15:10:46;13.20;74.70
55313;DHT22;46892;45.668;11.756;2023-04-25T15:13:12;13.30;75.40
55313;DHT22;46892;45.668;11.756;2023-04-25T15:15:37;13.20;75.60
55313;DHT22;46892;45.668;11.756;2023-04-25T15:18:03;13.20;76.10
55313;DHT22;46892;45.668;11.756;2023-04-25T15:20:29;13.20;76.80
55313;DHT22;46892;45.668;11.756;2023-04-25T15:22:55;13.20;74.10
55313;DHT22;46892;45.668;11.756;2023-04-25T15:25:21;13.20;74.90
55313;DHT22;46892;45.668;11.756;2023-04-25T15:27:46;13.20;73.70